<?xml version="1.0" encoding="utf-8"?>
<gpx xmlns:xsi="http://www.w3.org/2001/XMLSchema-instance" xmlns:xsd="http://www.w3.org/2001/XMLSchema" version="1.1" creator="Shapelink.com" xmlns="http://www.topografix.com/GPX/1/1" xmlns:gpxtpx="http://www.garmin.com/xmlschemas/TrackPointExtension/v1">
  <metadata>
    <name>Löpning 4.16 km, 2011-04-22</name>
    <desc></desc>
    <author><name>Stefan Östlund</name></author> 
    <time>2011-04-22T10:40:20Z</time>
  </metadata>
  <trk>
    <name>Löpning 4.16 km, 2011-04-22</name>
    <trkseg>
      <trkpt lat="59.9475487" lon="15.7056751">
        <ele>122.225</ele>
        <time>2011-04-22T10:40:20Z</time>
      </trkpt>
      <trkpt lat="59.9475404" lon="15.7056578">
        <ele>122.705</ele>
        <time>2011-04-22T10:40:22Z</time>
      </trkpt>
      <trkpt lat="59.9474776" lon="15.705607">
        <ele>130.396</ele>
        <time>2011-04-22T10:40:29Z</time>
      </trkpt>
      <trkpt lat="59.9473671" lon="15.7055657">
        <ele>155.871</ele>
        <time>2011-04-22T10:40:38Z</time>
      </trkpt>
      <trkpt lat="59.9473012" lon="15.7054736">
        <ele>164.523</ele>
        <time>2011-04-22T10:40:48Z</time>
      </trkpt>
      <trkpt lat="59.9472826" lon="15.7054664">
        <ele>168.368</ele>
        <time>2011-04-22T10:40:53Z</time>
      </trkpt>
      <trkpt lat="59.9470953" lon="15.7042464">
        <ele>196.246</ele>
        <time>2011-04-22T10:42:43Z</time>
      </trkpt>
      <trkpt lat="59.947083" lon="15.7041447">
        <ele>194.324</ele>
        <time>2011-04-22T10:42:52Z</time>
      </trkpt>
      <trkpt lat="59.9470381" lon="15.7039385">
        <ele>193.843</ele>
        <time>2011-04-22T10:43:13Z</time>
      </trkpt>
      <trkpt lat="59.9470444" lon="15.7038093">
        <ele>196.727</ele>
        <time>2011-04-22T10:43:23Z</time>
      </trkpt>
      <trkpt lat="59.9470412" lon="15.7037636">
        <ele>196.246</ele>
        <time>2011-04-22T10:43:28Z</time>
      </trkpt>
      <trkpt lat="59.9471577" lon="15.7045042">
        <ele>185.672</ele>
        <time>2011-04-22T10:45:03Z</time>
      </trkpt>
      <trkpt lat="59.9471775" lon="15.7046233">
        <ele>185.672</ele>
        <time>2011-04-22T10:45:10Z</time>
      </trkpt>
      <trkpt lat="59.9472385" lon="15.7047474">
        <ele>185.191</ele>
        <time>2011-04-22T10:45:22Z</time>
      </trkpt>
      <trkpt lat="59.9473271" lon="15.7048939">
        <ele>187.114</ele>
        <time>2011-04-22T10:45:32Z</time>
      </trkpt>
      <trkpt lat="59.9474101" lon="15.7050623">
        <ele>187.114</ele>
        <time>2011-04-22T10:45:42Z</time>
      </trkpt>
      <trkpt lat="59.9475151" lon="15.7052553">
        <ele>186.633</ele>
        <time>2011-04-22T10:45:54Z</time>
      </trkpt>
      <trkpt lat="59.9476007" lon="15.7054131">
        <ele>186.152</ele>
        <time>2011-04-22T10:46:04Z</time>
      </trkpt>
      <trkpt lat="59.9476831" lon="15.7055832">
        <ele>184.711</ele>
        <time>2011-04-22T10:46:14Z</time>
      </trkpt>
      <trkpt lat="59.9477902" lon="15.7057521">
        <ele>186.152</ele>
        <time>2011-04-22T10:46:25Z</time>
      </trkpt>
      <trkpt lat="59.9478726" lon="15.7058833">
        <ele>186.633</ele>
        <time>2011-04-22T10:46:35Z</time>
      </trkpt>
      <trkpt lat="59.9478771" lon="15.7058891">
        <ele>187.114</ele>
        <time>2011-04-22T10:46:37Z</time>
      </trkpt>
      <trkpt lat="59.9479938" lon="15.7064801">
        <ele>187.114</ele>
        <time>2011-04-22T10:47:19Z</time>
      </trkpt>
      <trkpt lat="59.9480337" lon="15.7066153">
        <ele>187.114</ele>
        <time>2011-04-22T10:47:26Z</time>
      </trkpt>
      <trkpt lat="59.9480523" lon="15.7066696">
        <ele>189.036</ele>
        <time>2011-04-22T10:47:30Z</time>
      </trkpt>
      <trkpt lat="59.9480534" lon="15.7066966">
        <ele>188.556</ele>
        <time>2011-04-22T10:47:34Z</time>
      </trkpt>
      <trkpt lat="59.9481843" lon="15.7069955">
        <ele>185.672</ele>
        <time>2011-04-22T10:47:57Z</time>
      </trkpt>
      <trkpt lat="59.9482357" lon="15.7071078">
        <ele>183.749</ele>
        <time>2011-04-22T10:48:06Z</time>
      </trkpt>
      <trkpt lat="59.9482491" lon="15.7071114">
        <ele>184.711</ele>
        <time>2011-04-22T10:48:10Z</time>
      </trkpt>
      <trkpt lat="59.9476794" lon="15.7080798">
        <ele>191.92</ele>
        <time>2011-04-22T10:56:51Z</time>
      </trkpt>
      <trkpt lat="59.9477095" lon="15.7080994">
        <ele>191.44</ele>
        <time>2011-04-22T10:56:56Z</time>
      </trkpt>
      <trkpt lat="59.9477618" lon="15.7080914">
        <ele>189.517</ele>
        <time>2011-04-22T10:57:02Z</time>
      </trkpt>
      <trkpt lat="59.9478133" lon="15.7080762">
        <ele>188.556</ele>
        <time>2011-04-22T10:57:09Z</time>
      </trkpt>
      <trkpt lat="59.947841" lon="15.7080832">
        <ele>189.036</ele>
        <time>2011-04-22T10:57:12Z</time>
      </trkpt>
      <trkpt lat="59.9478727" lon="15.7080894">
        <ele>189.998</ele>
        <time>2011-04-22T10:57:15Z</time>
      </trkpt>
      <trkpt lat="59.9479016" lon="15.7081015">
        <ele>190.478</ele>
        <time>2011-04-22T10:57:19Z</time>
      </trkpt>
      <trkpt lat="59.9479549" lon="15.7080694">
        <ele>190.959</ele>
        <time>2011-04-22T10:57:25Z</time>
      </trkpt>
      <trkpt lat="59.9479872" lon="15.7080709">
        <ele>190.959</ele>
        <time>2011-04-22T10:57:31Z</time>
      </trkpt>
      <trkpt lat="59.9480337" lon="15.70805">
        <ele>191.44</ele>
        <time>2011-04-22T10:57:37Z</time>
      </trkpt>
      <trkpt lat="59.9480736" lon="15.7080294">
        <ele>190.959</ele>
        <time>2011-04-22T10:57:43Z</time>
      </trkpt>
      <trkpt lat="59.9480865" lon="15.7080279">
        <ele>191.44</ele>
        <time>2011-04-22T10:57:44Z</time>
      </trkpt>
      <trkpt lat="59.9481498" lon="15.7080087">
        <ele>193.362</ele>
        <time>2011-04-22T10:57:50Z</time>
      </trkpt>
      <trkpt lat="59.948178" lon="15.7079927">
        <ele>194.804</ele>
        <time>2011-04-22T10:57:54Z</time>
      </trkpt>
      <trkpt lat="59.9482361" lon="15.7080196">
        <ele>195.285</ele>
        <time>2011-04-22T10:58:03Z</time>
      </trkpt>
      <trkpt lat="59.9482756" lon="15.7080134">
        <ele>195.766</ele>
        <time>2011-04-22T10:58:08Z</time>
      </trkpt>
      <trkpt lat="59.9482928" lon="15.7079498">
        <ele>195.285</ele>
        <time>2011-04-22T10:58:13Z</time>
      </trkpt>
      <trkpt lat="59.9483199" lon="15.7078951">
        <ele>194.804</ele>
        <time>2011-04-22T10:58:18Z</time>
      </trkpt>
      <trkpt lat="59.9483496" lon="15.7077923">
        <ele>193.362</ele>
        <time>2011-04-22T10:58:25Z</time>
      </trkpt>
      <trkpt lat="59.9483653" lon="15.7076875">
        <ele>192.882</ele>
        <time>2011-04-22T10:58:31Z</time>
      </trkpt>
      <trkpt lat="59.9483598" lon="15.707585">
        <ele>191.44</ele>
        <time>2011-04-22T10:58:36Z</time>
      </trkpt>
      <trkpt lat="59.9483543" lon="15.7074789">
        <ele>192.882</ele>
        <time>2011-04-22T10:58:43Z</time>
      </trkpt>
      <trkpt lat="59.9483543" lon="15.7074665">
        <ele>191.92</ele>
        <time>2011-04-22T10:58:46Z</time>
      </trkpt>
      <trkpt lat="59.9483916" lon="15.7071709">
        <ele>193.843</ele>
        <time>2011-04-22T10:59:08Z</time>
      </trkpt>
      <trkpt lat="59.9483745" lon="15.70714">
        <ele>193.843</ele>
        <time>2011-04-22T10:59:11Z</time>
      </trkpt>
      <trkpt lat="59.9483376" lon="15.7070203">
        <ele>196.727</ele>
        <time>2011-04-22T10:59:18Z</time>
      </trkpt>
      <trkpt lat="59.9482905" lon="15.7069036">
        <ele>198.65</ele>
        <time>2011-04-22T10:59:26Z</time>
      </trkpt>
      <trkpt lat="59.9482348" lon="15.7068471">
        <ele>199.13</ele>
        <time>2011-04-22T10:59:33Z</time>
      </trkpt>
      <trkpt lat="59.9482388" lon="15.7068438">
        <ele>199.611</ele>
        <time>2011-04-22T10:59:35Z</time>
      </trkpt>
      <trkpt lat="59.948102" lon="15.7060662">
        <ele>203.456</ele>
        <time>2011-04-22T11:02:55Z</time>
      </trkpt>
      <trkpt lat="59.9481267" lon="15.7059909">
        <ele>204.898</ele>
        <time>2011-04-22T11:02:59Z</time>
      </trkpt>
      <trkpt lat="59.9481479" lon="15.7059328">
        <ele>202.975</ele>
        <time>2011-04-22T11:03:06Z</time>
      </trkpt>
      <trkpt lat="59.9480451" lon="15.7063936">
        <ele>199.13</ele>
        <time>2011-04-22T11:05:16Z</time>
      </trkpt>
      <trkpt lat="59.9480999" lon="15.7066651">
        <ele>199.13</ele>
        <time>2011-04-22T11:05:21Z</time>
      </trkpt>
      <trkpt lat="59.9482688" lon="15.7069051">
        <ele>196.246</ele>
        <time>2011-04-22T11:05:27Z</time>
      </trkpt>
      <trkpt lat="59.9485403" lon="15.7071248">
        <ele>198.65</ele>
        <time>2011-04-22T11:05:34Z</time>
      </trkpt>
      <trkpt lat="59.9486413" lon="15.7072124">
        <ele>197.688</ele>
        <time>2011-04-22T11:05:39Z</time>
      </trkpt>
      <trkpt lat="59.9486768" lon="15.7072524">
        <ele>197.688</ele>
        <time>2011-04-22T11:05:41Z</time>
      </trkpt>
      <trkpt lat="59.9488997" lon="15.7074813">
        <ele>200.092</ele>
        <time>2011-04-22T11:05:48Z</time>
      </trkpt>
      <trkpt lat="59.949079" lon="15.7077711">
        <ele>196.246</ele>
        <time>2011-04-22T11:05:53Z</time>
      </trkpt>
      <trkpt lat="59.9491375" lon="15.7080697">
        <ele>197.688</ele>
        <time>2011-04-22T11:05:57Z</time>
      </trkpt>
      <trkpt lat="59.9491703" lon="15.7082314">
        <ele>199.13</ele>
        <time>2011-04-22T11:05:59Z</time>
      </trkpt>
      <trkpt lat="59.9491817" lon="15.7087039">
        <ele>199.13</ele>
        <time>2011-04-22T11:06:05Z</time>
      </trkpt>
      <trkpt lat="59.9492995" lon="15.7090779">
        <ele>199.13</ele>
        <time>2011-04-22T11:06:11Z</time>
      </trkpt>
      <trkpt lat="59.9493371" lon="15.709124">
        <ele>199.611</ele>
        <time>2011-04-22T11:06:12Z</time>
      </trkpt>
      <trkpt lat="59.9494782" lon="15.7092711">
        <ele>200.092</ele>
        <time>2011-04-22T11:06:17Z</time>
      </trkpt>
      <trkpt lat="59.9496201" lon="15.709443">
        <ele>199.13</ele>
        <time>2011-04-22T11:06:22Z</time>
      </trkpt>
      <trkpt lat="59.9498323" lon="15.7097312">
        <ele>196.246</ele>
        <time>2011-04-22T11:06:28Z</time>
      </trkpt>
      <trkpt lat="59.9500739" lon="15.7100341">
        <ele>197.208</ele>
        <time>2011-04-22T11:06:34Z</time>
      </trkpt>
      <trkpt lat="59.9501181" lon="15.7100999">
        <ele>196.727</ele>
        <time>2011-04-22T11:06:35Z</time>
      </trkpt>
      <trkpt lat="59.9503512" lon="15.7104054">
        <ele>195.766</ele>
        <time>2011-04-22T11:06:41Z</time>
      </trkpt>
      <trkpt lat="59.9504854" lon="15.7106298">
        <ele>197.208</ele>
        <time>2011-04-22T11:06:45Z</time>
      </trkpt>
      <trkpt lat="59.9505528" lon="15.7108478">
        <ele>195.766</ele>
        <time>2011-04-22T11:06:50Z</time>
      </trkpt>
      <trkpt lat="59.9505668" lon="15.7108884">
        <ele>196.246</ele>
        <time>2011-04-22T11:06:52Z</time>
      </trkpt>
      <trkpt lat="59.9506144" lon="15.7110368">
        <ele>198.169</ele>
        <time>2011-04-22T11:07:00Z</time>
      </trkpt>
      <trkpt lat="59.9507175" lon="15.7112642">
        <ele>200.092</ele>
        <time>2011-04-22T11:07:07Z</time>
      </trkpt>
      <trkpt lat="59.9507758" lon="15.711503">
        <ele>197.208</ele>
        <time>2011-04-22T11:07:13Z</time>
      </trkpt>
      <trkpt lat="59.9508158" lon="15.7117486">
        <ele>199.13</ele>
        <time>2011-04-22T11:07:18Z</time>
      </trkpt>
      <trkpt lat="59.9508892" lon="15.7124304">
        <ele>195.285</ele>
        <time>2011-04-22T11:07:26Z</time>
      </trkpt>
      <trkpt lat="59.9508955" lon="15.7125295">
        <ele>194.804</ele>
        <time>2011-04-22T11:07:27Z</time>
      </trkpt>
      <trkpt lat="59.9508616" lon="15.7133373">
        <ele>194.804</ele>
        <time>2011-04-22T11:07:36Z</time>
      </trkpt>
      <trkpt lat="59.9509075" lon="15.7136966">
        <ele>186.152</ele>
        <time>2011-04-22T11:07:42Z</time>
      </trkpt>
      <trkpt lat="59.9509742" lon="15.7140793">
        <ele>180.865</ele>
        <time>2011-04-22T11:07:48Z</time>
      </trkpt>
      <trkpt lat="59.9510415" lon="15.7143974">
        <ele>179.423</ele>
        <time>2011-04-22T11:07:53Z</time>
      </trkpt>
      <trkpt lat="59.9510771" lon="15.7148977">
        <ele>173.175</ele>
        <time>2011-04-22T11:07:58Z</time>
      </trkpt>
      <trkpt lat="59.9511654" lon="15.7154621">
        <ele>169.329</ele>
        <time>2011-04-22T11:08:03Z</time>
      </trkpt>
      <trkpt lat="59.9513176" lon="15.7162673">
        <ele>166.445</ele>
        <time>2011-04-22T11:08:11Z</time>
      </trkpt>
      <trkpt lat="59.9514888" lon="15.7171582">
        <ele>165.003</ele>
        <time>2011-04-22T11:08:19Z</time>
      </trkpt>
      <trkpt lat="59.951693" lon="15.717685">
        <ele>163.081</ele>
        <time>2011-04-22T11:08:25Z</time>
      </trkpt>
      <trkpt lat="59.9519395" lon="15.7182908">
        <ele>160.197</ele>
        <time>2011-04-22T11:08:32Z</time>
      </trkpt>
      <trkpt lat="59.9522338" lon="15.7187999">
        <ele>157.313</ele>
        <time>2011-04-22T11:08:39Z</time>
      </trkpt>
      <trkpt lat="59.9524652" lon="15.7191186">
        <ele>155.39</ele>
        <time>2011-04-22T11:08:44Z</time>
      </trkpt>
      <trkpt lat="59.9527874" lon="15.7194262">
        <ele>154.429</ele>
        <time>2011-04-22T11:08:51Z</time>
      </trkpt>
      <trkpt lat="59.9530792" lon="15.7196919">
        <ele>153.468</ele>
        <time>2011-04-22T11:08:58Z</time>
      </trkpt>
      <trkpt lat="59.953167" lon="15.7197577">
        <ele>152.026</ele>
        <time>2011-04-22T11:09:00Z</time>
      </trkpt>
      <trkpt lat="59.9534697" lon="15.7200939">
        <ele>150.584</ele>
        <time>2011-04-22T11:09:07Z</time>
      </trkpt>
      <trkpt lat="59.9537982" lon="15.7204253">
        <ele>152.026</ele>
        <time>2011-04-22T11:09:13Z</time>
      </trkpt>
      <trkpt lat="59.9540367" lon="15.7206619">
        <ele>151.064</ele>
        <time>2011-04-22T11:09:18Z</time>
      </trkpt>
      <trkpt lat="59.9540831" lon="15.720702">
        <ele>150.584</ele>
        <time>2011-04-22T11:09:19Z</time>
      </trkpt>
      <trkpt lat="59.9542777" lon="15.7207702">
        <ele>148.661</ele>
        <time>2011-04-22T11:09:23Z</time>
      </trkpt>
      <trkpt lat="59.9545563" lon="15.7207596">
        <ele>149.622</ele>
        <time>2011-04-22T11:09:28Z</time>
      </trkpt>
      <trkpt lat="59.9546429" lon="15.7206993">
        <ele>149.622</ele>
        <time>2011-04-22T11:09:30Z</time>
      </trkpt>
      <trkpt lat="59.954758" lon="15.7206622">
        <ele>149.622</ele>
        <time>2011-04-22T11:09:33Z</time>
      </trkpt>
      <trkpt lat="59.9548015" lon="15.7206511">
        <ele>149.142</ele>
        <time>2011-04-22T11:09:34Z</time>
      </trkpt>
      <trkpt lat="59.9549077" lon="15.7206093">
        <ele>148.661</ele>
        <time>2011-04-22T11:09:37Z</time>
      </trkpt>
      <trkpt lat="59.9550715" lon="15.72059">
        <ele>151.545</ele>
        <time>2011-04-22T11:09:42Z</time>
      </trkpt>
      <trkpt lat="59.9757527" lon="15.7858098">
        <ele>107.324</ele>
        <time>2011-04-22T11:26:22Z</time>
      </trkpt>
      <trkpt lat="59.9757559" lon="15.7858734">
        <ele>105.882</ele>
        <time>2011-04-22T11:26:25Z</time>
      </trkpt>
      <trkpt lat="59.9757789" lon="15.7860531">
        <ele>107.805</ele>
        <time>2011-04-22T11:26:32Z</time>
      </trkpt>
      <trkpt lat="59.9758263" lon="15.7862273">
        <ele>106.844</ele>
        <time>2011-04-22T11:26:41Z</time>
      </trkpt>
      <trkpt lat="59.9758921" lon="15.7864326">
        <ele>107.324</ele>
        <time>2011-04-22T11:26:50Z</time>
      </trkpt>
      <trkpt lat="59.9759104" lon="15.7866342">
        <ele>107.324</ele>
        <time>2011-04-22T11:26:58Z</time>
      </trkpt>
      <trkpt lat="59.9759144" lon="15.7867395">
        <ele>106.844</ele>
        <time>2011-04-22T11:27:03Z</time>
      </trkpt>
      <trkpt lat="59.9759118" lon="15.7868084">
        <ele>105.882</ele>
        <time>2011-04-22T11:27:07Z</time>
      </trkpt>
      <trkpt lat="59.9759145" lon="15.7868514">
        <ele>105.402</ele>
        <time>2011-04-22T11:27:09Z</time>
      </trkpt>
      <trkpt lat="59.9759493" lon="15.7870322">
        <ele>104.921</ele>
        <time>2011-04-22T11:27:17Z</time>
      </trkpt>
      <trkpt lat="59.9759824" lon="15.7871698">
        <ele>106.844</ele>
        <time>2011-04-22T11:27:24Z</time>
      </trkpt>
      <trkpt lat="59.9759906" lon="15.7872969">
        <ele>106.844</ele>
        <time>2011-04-22T11:27:30Z</time>
      </trkpt>
      <trkpt lat="59.9760078" lon="15.7874575">
        <ele>107.324</ele>
        <time>2011-04-22T11:27:37Z</time>
      </trkpt>
      <trkpt lat="59.9760242" lon="15.7876714">
        <ele>106.844</ele>
        <time>2011-04-22T11:27:46Z</time>
      </trkpt>
      <trkpt lat="59.9760581" lon="15.7878588">
        <ele>105.882</ele>
        <time>2011-04-22T11:27:54Z</time>
      </trkpt>
      <trkpt lat="59.9761045" lon="15.7880407">
        <ele>107.805</ele>
        <time>2011-04-22T11:28:02Z</time>
      </trkpt>
      <trkpt lat="59.9761599" lon="15.7881675">
        <ele>107.805</ele>
        <time>2011-04-22T11:28:08Z</time>
      </trkpt>
      <trkpt lat="59.9762288" lon="15.7882815">
        <ele>106.844</ele>
        <time>2011-04-22T11:28:15Z</time>
      </trkpt>
      <trkpt lat="59.9763277" lon="15.7884192">
        <ele>107.805</ele>
        <time>2011-04-22T11:28:23Z</time>
      </trkpt>
      <trkpt lat="59.9763983" lon="15.788539">
        <ele>108.766</ele>
        <time>2011-04-22T11:28:31Z</time>
      </trkpt>
      <trkpt lat="59.9764391" lon="15.7886468">
        <ele>109.247</ele>
        <time>2011-04-22T11:28:38Z</time>
      </trkpt>
      <trkpt lat="59.9764668" lon="15.7887145">
        <ele>108.766</ele>
        <time>2011-04-22T11:28:42Z</time>
      </trkpt>
      <trkpt lat="59.9765113" lon="15.788887">
        <ele>107.324</ele>
        <time>2011-04-22T11:28:50Z</time>
      </trkpt>
      <trkpt lat="59.9765442" lon="15.7890534">
        <ele>106.363</ele>
        <time>2011-04-22T11:28:58Z</time>
      </trkpt>
      <trkpt lat="59.9765779" lon="15.7891629">
        <ele>108.766</ele>
        <time>2011-04-22T11:29:06Z</time>
      </trkpt>
      <trkpt lat="59.9766884" lon="15.7894508">
        <ele>110.689</ele>
        <time>2011-04-22T11:29:25Z</time>
      </trkpt>
      <trkpt lat="59.9767304" lon="15.7895785">
        <ele>109.728</ele>
        <time>2011-04-22T11:29:32Z</time>
      </trkpt>
      <trkpt lat="59.9767782" lon="15.7897241">
        <ele>106.363</ele>
        <time>2011-04-22T11:29:40Z</time>
      </trkpt>
      <trkpt lat="59.9768267" lon="15.789959">
        <ele>106.844</ele>
        <time>2011-04-22T11:29:48Z</time>
      </trkpt>
      <trkpt lat="59.9768685" lon="15.7901154">
        <ele>105.882</ele>
        <time>2011-04-22T11:29:55Z</time>
      </trkpt>
      <trkpt lat="59.9769167" lon="15.7902614">
        <ele>104.44</ele>
        <time>2011-04-22T11:30:02Z</time>
      </trkpt>
      <trkpt lat="59.9769231" lon="15.7902867">
        <ele>104.44</ele>
        <time>2011-04-22T11:30:03Z</time>
      </trkpt>
      <trkpt lat="59.9769835" lon="15.7904229">
        <ele>103.479</ele>
        <time>2011-04-22T11:30:10Z</time>
      </trkpt>
      <trkpt lat="59.9769925" lon="15.7904439">
        <ele>103.479</ele>
        <time>2011-04-22T11:30:11Z</time>
      </trkpt>
      <trkpt lat="59.977052" lon="15.7906138">
        <ele>101.556</ele>
        <time>2011-04-22T11:30:19Z</time>
      </trkpt>
      <trkpt lat="59.9771059" lon="15.7908801">
        <ele>100.115</ele>
        <time>2011-04-22T11:30:30Z</time>
      </trkpt>
      <trkpt lat="59.9771474" lon="15.7910773">
        <ele>102.518</ele>
        <time>2011-04-22T11:30:37Z</time>
      </trkpt>
      <trkpt lat="59.9772011" lon="15.7912214">
        <ele>103.479</ele>
        <time>2011-04-22T11:30:43Z</time>
      </trkpt>
      <trkpt lat="59.977279" lon="15.7913714">
        <ele>102.998</ele>
        <time>2011-04-22T11:30:51Z</time>
      </trkpt>
      <trkpt lat="59.9773551" lon="15.7915155">
        <ele>103.96</ele>
        <time>2011-04-22T11:30:58Z</time>
      </trkpt>
      <trkpt lat="59.9774322" lon="15.7916605">
        <ele>104.44</ele>
        <time>2011-04-22T11:31:06Z</time>
      </trkpt>
      <trkpt lat="59.9775007" lon="15.7917808">
        <ele>103.96</ele>
        <time>2011-04-22T11:31:13Z</time>
      </trkpt>
      <trkpt lat="59.977596" lon="15.7919368">
        <ele>104.44</ele>
        <time>2011-04-22T11:31:22Z</time>
      </trkpt>
      <trkpt lat="59.9776758" lon="15.7920456">
        <ele>105.402</ele>
        <time>2011-04-22T11:31:29Z</time>
      </trkpt>
      <trkpt lat="59.9777541" lon="15.7921341">
        <ele>107.805</ele>
        <time>2011-04-22T11:31:36Z</time>
      </trkpt>
      <trkpt lat="59.9778447" lon="15.7921859">
        <ele>105.402</ele>
        <time>2011-04-22T11:31:44Z</time>
      </trkpt>
      <trkpt lat="59.9779066" lon="15.7922222">
        <ele>105.882</ele>
        <time>2011-04-22T11:31:49Z</time>
      </trkpt>
      <trkpt lat="59.9779823" lon="15.7922775">
        <ele>106.363</ele>
        <time>2011-04-22T11:31:55Z</time>
      </trkpt>
      <trkpt lat="59.9780539" lon="15.7923464">
        <ele>108.286</ele>
        <time>2011-04-22T11:32:01Z</time>
      </trkpt>
      <trkpt lat="59.9781487" lon="15.7924307">
        <ele>108.286</ele>
        <time>2011-04-22T11:32:09Z</time>
      </trkpt>
      <trkpt lat="59.9782601" lon="15.792522">
        <ele>108.766</ele>
        <time>2011-04-22T11:32:17Z</time>
      </trkpt>
      <trkpt lat="59.9783808" lon="15.7926064">
        <ele>108.286</ele>
        <time>2011-04-22T11:32:26Z</time>
      </trkpt>
      <trkpt lat="59.978462" lon="15.7926423">
        <ele>107.805</ele>
        <time>2011-04-22T11:32:32Z</time>
      </trkpt>
      <trkpt lat="59.9785391" lon="15.7926841">
        <ele>107.805</ele>
        <time>2011-04-22T11:32:38Z</time>
      </trkpt>
      <trkpt lat="59.9785534" lon="15.7926933">
        <ele>107.805</ele>
        <time>2011-04-22T11:32:39Z</time>
      </trkpt>
      <trkpt lat="59.9786107" lon="15.792699">
        <ele>107.324</ele>
        <time>2011-04-22T11:32:44Z</time>
      </trkpt>
      <trkpt lat="59.9787525" lon="15.792713">
        <ele>107.805</ele>
        <time>2011-04-22T11:32:55Z</time>
      </trkpt>
      <trkpt lat="59.9788699" lon="15.7927013">
        <ele>107.805</ele>
        <time>2011-04-22T11:33:04Z</time>
      </trkpt>
      <trkpt lat="59.9789801" lon="15.7926672">
        <ele>107.805</ele>
        <time>2011-04-22T11:33:12Z</time>
      </trkpt>
      <trkpt lat="59.9790743" lon="15.7925855">
        <ele>107.324</ele>
        <time>2011-04-22T11:33:20Z</time>
      </trkpt>
      <trkpt lat="59.9791679" lon="15.7924925">
        <ele>107.324</ele>
        <time>2011-04-22T11:33:28Z</time>
      </trkpt>
      <trkpt lat="59.9792643" lon="15.7924019">
        <ele>107.324</ele>
        <time>2011-04-22T11:33:36Z</time>
      </trkpt>
      <trkpt lat="59.9793646" lon="15.7922901">
        <ele>106.844</ele>
        <time>2011-04-22T11:33:45Z</time>
      </trkpt>
      <trkpt lat="59.9794065" lon="15.7922406">
        <ele>107.324</ele>
        <time>2011-04-22T11:33:49Z</time>
      </trkpt>
      <trkpt lat="59.979499" lon="15.7921382">
        <ele>107.805</ele>
        <time>2011-04-22T11:33:58Z</time>
      </trkpt>
      <trkpt lat="59.979582" lon="15.7920781">
        <ele>107.805</ele>
        <time>2011-04-22T11:34:06Z</time>
      </trkpt>
      <trkpt lat="59.9796655" lon="15.792072">
        <ele>108.286</ele>
        <time>2011-04-22T11:34:14Z</time>
      </trkpt>
      <trkpt lat="59.9797546" lon="15.7920642">
        <ele>109.247</ele>
        <time>2011-04-22T11:34:22Z</time>
      </trkpt>
      <trkpt lat="59.9798534" lon="15.7919959">
        <ele>110.208</ele>
        <time>2011-04-22T11:34:31Z</time>
      </trkpt>
      <trkpt lat="59.9799234" lon="15.7919396">
        <ele>110.689</ele>
        <time>2011-04-22T11:34:37Z</time>
      </trkpt>
      <trkpt lat="59.9800077" lon="15.7919007">
        <ele>111.17</ele>
        <time>2011-04-22T11:34:45Z</time>
      </trkpt>
      <trkpt lat="59.9800187" lon="15.7918837">
        <ele>111.17</ele>
        <time>2011-04-22T11:34:47Z</time>
      </trkpt>
      <trkpt lat="59.9800222" lon="15.7918657">
        <ele>111.65</ele>
        <time>2011-04-22T11:34:50Z</time>
      </trkpt>
      <trkpt lat="59.9802003" lon="15.7918147">
        <ele>107.805</ele>
        <time>2011-04-22T11:36:16Z</time>
      </trkpt>
      <trkpt lat="59.9803131" lon="15.7917526">
        <ele>105.882</ele>
        <time>2011-04-22T11:36:25Z</time>
      </trkpt>
      <trkpt lat="59.9804316" lon="15.7916376">
        <ele>103.479</ele>
        <time>2011-04-22T11:36:35Z</time>
      </trkpt>
      <trkpt lat="59.9805168" lon="15.7914545">
        <ele>99.6338</ele>
        <time>2011-04-22T11:36:45Z</time>
      </trkpt>
      <trkpt lat="59.9805414" lon="15.7911851">
        <ele>98.6725</ele>
        <time>2011-04-22T11:36:55Z</time>
      </trkpt>
      <trkpt lat="59.9805368" lon="15.7910996">
        <ele>98.6725</ele>
        <time>2011-04-22T11:36:58Z</time>
      </trkpt>
      <trkpt lat="59.9805087" lon="15.7908499">
        <ele>98.1919</ele>
        <time>2011-04-22T11:37:07Z</time>
      </trkpt>
      <trkpt lat="59.980465" lon="15.7905446">
        <ele>98.1919</ele>
        <time>2011-04-22T11:37:18Z</time>
      </trkpt>
      <trkpt lat="59.9804311" lon="15.7903071">
        <ele>97.7112</ele>
        <time>2011-04-22T11:37:27Z</time>
      </trkpt>
      <trkpt lat="59.9803863" lon="15.7901577">
        <ele>97.7112</ele>
        <time>2011-04-22T11:37:34Z</time>
      </trkpt>
      <trkpt lat="59.9803197" lon="15.7900833">
        <ele>97.2305</ele>
        <time>2011-04-22T11:37:40Z</time>
      </trkpt>
      <trkpt lat="59.9802026" lon="15.7900273">
        <ele>97.2305</ele>
        <time>2011-04-22T11:37:50Z</time>
      </trkpt>
      <trkpt lat="59.9801696" lon="15.7900126">
        <ele>97.7112</ele>
        <time>2011-04-22T11:37:53Z</time>
      </trkpt>
      <trkpt lat="59.980147" lon="15.7899795">
        <ele>98.6725</ele>
        <time>2011-04-22T11:37:58Z</time>
      </trkpt>
      <trkpt lat="59.9799726" lon="15.7897277">
        <ele>102.037</ele>
        <time>2011-04-22T11:38:40Z</time>
      </trkpt>
      <trkpt lat="59.9799261" lon="15.789673">
        <ele>102.998</ele>
        <time>2011-04-22T11:38:45Z</time>
      </trkpt>
      <trkpt lat="59.97984" lon="15.7895695">
        <ele>102.998</ele>
        <time>2011-04-22T11:38:50Z</time>
      </trkpt>
      <trkpt lat="59.9797799" lon="15.7894643">
        <ele>100.115</ele>
        <time>2011-04-22T11:38:54Z</time>
      </trkpt>
      <trkpt lat="59.979723" lon="15.7892834">
        <ele>98.1919</ele>
        <time>2011-04-22T11:39:00Z</time>
      </trkpt>
      <trkpt lat="59.9797238" lon="15.7892907">
        <ele>98.6725</ele>
        <time>2011-04-22T11:39:01Z</time>
      </trkpt>
      <trkpt lat="59.9797673" lon="15.7893927">
        <ele>98.6725</ele>
        <time>2011-04-22T11:39:07Z</time>
      </trkpt>
      <trkpt lat="59.9797716" lon="15.7894041">
        <ele>98.6725</ele>
        <time>2011-04-22T11:39:08Z</time>
      </trkpt>
      <trkpt lat="59.979746" lon="15.7893729">
        <ele>98.6725</ele>
        <time>2011-04-22T11:39:16Z</time>
      </trkpt>
      <trkpt lat="59.9797276" lon="15.7893304">
        <ele>98.6725</ele>
        <time>2011-04-22T11:39:19Z</time>
      </trkpt>
      <trkpt lat="59.9796816" lon="15.7891642">
        <ele>94.8271</ele>
        <time>2011-04-22T11:39:27Z</time>
      </trkpt>
      <trkpt lat="59.9796699" lon="15.7890777">
        <ele>94.3466</ele>
        <time>2011-04-22T11:39:30Z</time>
      </trkpt>
      <trkpt lat="59.9796287" lon="15.788924">
        <ele>91.9432</ele>
        <time>2011-04-22T11:39:38Z</time>
      </trkpt>
      <trkpt lat="59.9796063" lon="15.7888442">
        <ele>93.8658</ele>
        <time>2011-04-22T11:39:47Z</time>
      </trkpt>
      <trkpt lat="59.9797509" lon="15.7882836">
        <ele>95.7885</ele>
        <time>2011-04-22T11:40:26Z</time>
      </trkpt>
      <trkpt lat="59.9797872" lon="15.7881107">
        <ele>95.7885</ele>
        <time>2011-04-22T11:40:35Z</time>
      </trkpt>
      <trkpt lat="59.9797792" lon="15.7879899">
        <ele>95.7885</ele>
        <time>2011-04-22T11:40:42Z</time>
      </trkpt>
      <trkpt lat="59.9797743" lon="15.787979">
        <ele>95.3077</ele>
        <time>2011-04-22T11:40:44Z</time>
      </trkpt>
      <trkpt lat="59.9797438" lon="15.7877523">
        <ele>95.7885</ele>
        <time>2011-04-22T11:41:03Z</time>
      </trkpt>
      <trkpt lat="59.9796906" lon="15.7875881">
        <ele>91.9432</ele>
        <time>2011-04-22T11:41:11Z</time>
      </trkpt>
      <trkpt lat="59.9796301" lon="15.7874103">
        <ele>90.9819</ele>
        <time>2011-04-22T11:41:19Z</time>
      </trkpt>
      <trkpt lat="59.9795914" lon="15.7872504">
        <ele>94.3466</ele>
        <time>2011-04-22T11:41:27Z</time>
      </trkpt>
      <trkpt lat="59.9795478" lon="15.7870825">
        <ele>92.424</ele>
        <time>2011-04-22T11:41:34Z</time>
      </trkpt>
      <trkpt lat="59.9795598" lon="15.7868937">
        <ele>92.9045</ele>
        <time>2011-04-22T11:41:41Z</time>
      </trkpt>
      <trkpt lat="59.9795919" lon="15.7866592">
        <ele>93.3851</ele>
        <time>2011-04-22T11:41:50Z</time>
      </trkpt>
      <trkpt lat="59.9796136" lon="15.7864482">
        <ele>91.4625</ele>
        <time>2011-04-22T11:41:58Z</time>
      </trkpt>
      <trkpt lat="59.97967" lon="15.7862002">
        <ele>91.4625</ele>
        <time>2011-04-22T11:42:08Z</time>
      </trkpt>
      <trkpt lat="59.9797207" lon="15.7858842">
        <ele>93.3851</ele>
        <time>2011-04-22T11:42:21Z</time>
      </trkpt>
      <trkpt lat="59.9797122" lon="15.7856558">
        <ele>94.8271</ele>
        <time>2011-04-22T11:42:30Z</time>
      </trkpt>
      <trkpt lat="59.9797031" lon="15.7854745">
        <ele>97.2305</ele>
        <time>2011-04-22T11:42:38Z</time>
      </trkpt>
      <trkpt lat="59.97968" lon="15.7852963">
        <ele>97.7112</ele>
        <time>2011-04-22T11:42:45Z</time>
      </trkpt>
      <trkpt lat="59.9796468" lon="15.7850068">
        <ele>99.6338</ele>
        <time>2011-04-22T11:42:56Z</time>
      </trkpt>
      <trkpt lat="59.9796236" lon="15.7847876">
        <ele>100.595</ele>
        <time>2011-04-22T11:43:04Z</time>
      </trkpt>
      <trkpt lat="59.9796048" lon="15.7845531">
        <ele>101.556</ele>
        <time>2011-04-22T11:43:13Z</time>
      </trkpt>
      <trkpt lat="59.9795935" lon="15.7844298">
        <ele>102.998</ele>
        <time>2011-04-22T11:43:18Z</time>
      </trkpt>
      <trkpt lat="59.9795899" lon="15.7843261">
        <ele>104.44</ele>
        <time>2011-04-22T11:43:23Z</time>
      </trkpt>
      <trkpt lat="59.9795789" lon="15.7842503">
        <ele>104.921</ele>
        <time>2011-04-22T11:43:27Z</time>
      </trkpt>
      <trkpt lat="59.9795338" lon="15.7840194">
        <ele>105.882</ele>
        <time>2011-04-22T11:43:37Z</time>
      </trkpt>
      <trkpt lat="59.9795055" lon="15.7838336">
        <ele>108.286</ele>
        <time>2011-04-22T11:43:45Z</time>
      </trkpt>
      <trkpt lat="59.9794223" lon="15.7836606">
        <ele>109.728</ele>
        <time>2011-04-22T11:43:54Z</time>
      </trkpt>
      <trkpt lat="59.9793422" lon="15.7835455">
        <ele>111.17</ele>
        <time>2011-04-22T11:44:02Z</time>
      </trkpt>
      <trkpt lat="59.9792788" lon="15.7834813">
        <ele>109.247</ele>
        <time>2011-04-22T11:44:09Z</time>
      </trkpt>
      <trkpt lat="59.979269" lon="15.7834719">
        <ele>109.728</ele>
        <time>2011-04-22T11:44:12Z</time>
      </trkpt>
      <trkpt lat="59.9791153" lon="15.7832885">
        <ele>110.689</ele>
        <time>2011-04-22T11:44:44Z</time>
      </trkpt>
      <trkpt lat="59.979107" lon="15.7832823">
        <ele>110.689</ele>
        <time>2011-04-22T11:44:45Z</time>
      </trkpt>
      <trkpt lat="59.9790362" lon="15.7832377">
        <ele>110.689</ele>
        <time>2011-04-22T11:44:53Z</time>
      </trkpt>
      <trkpt lat="59.9789603" lon="15.7832025">
        <ele>109.247</ele>
        <time>2011-04-22T11:45:00Z</time>
      </trkpt>
      <trkpt lat="59.9788561" lon="15.7831492">
        <ele>107.805</ele>
        <time>2011-04-22T11:45:08Z</time>
      </trkpt>
      <trkpt lat="59.9787473" lon="15.7831107">
        <ele>108.766</ele>
        <time>2011-04-22T11:45:16Z</time>
      </trkpt>
      <trkpt lat="59.9786703" lon="15.7830702">
        <ele>108.286</ele>
        <time>2011-04-22T11:45:22Z</time>
      </trkpt>
      <trkpt lat="59.9785938" lon="15.7830257">
        <ele>106.363</ele>
        <time>2011-04-22T11:45:28Z</time>
      </trkpt>
      <trkpt lat="59.978475" lon="15.7829675">
        <ele>104.921</ele>
        <time>2011-04-22T11:45:37Z</time>
      </trkpt>
      <trkpt lat="59.978342" lon="15.7828503">
        <ele>102.037</ele>
        <time>2011-04-22T11:45:47Z</time>
      </trkpt>
      <trkpt lat="59.9782259" lon="15.7826975">
        <ele>99.6338</ele>
        <time>2011-04-22T11:45:57Z</time>
      </trkpt>
      <trkpt lat="59.9782169" lon="15.7826861">
        <ele>99.6338</ele>
        <time>2011-04-22T11:45:58Z</time>
      </trkpt>
      <trkpt lat="59.9781631" lon="15.7825985">
        <ele>100.115</ele>
        <time>2011-04-22T11:46:03Z</time>
      </trkpt>
      <trkpt lat="59.9780703" lon="15.7824214">
        <ele>97.7112</ele>
        <time>2011-04-22T11:46:12Z</time>
      </trkpt>
      <trkpt lat="59.9780394" lon="15.7823826">
        <ele>97.7112</ele>
        <time>2011-04-22T11:46:15Z</time>
      </trkpt>
      <trkpt lat="59.9780034" lon="15.7822549">
        <ele>98.1919</ele>
        <time>2011-04-22T11:46:21Z</time>
      </trkpt>
      <trkpt lat="59.977961" lon="15.7821332">
        <ele>99.1531</ele>
        <time>2011-04-22T11:46:26Z</time>
      </trkpt>
      <trkpt lat="59.9779421" lon="15.7820924">
        <ele>99.6338</ele>
        <time>2011-04-22T11:46:28Z</time>
      </trkpt>
      <trkpt lat="59.9778792" lon="15.7819531">
        <ele>96.7499</ele>
        <time>2011-04-22T11:46:35Z</time>
      </trkpt>
      <trkpt lat="59.9778069" lon="15.781762">
        <ele>96.7499</ele>
        <time>2011-04-22T11:46:43Z</time>
      </trkpt>
      <trkpt lat="59.9777405" lon="15.7815921">
        <ele>96.2693</ele>
        <time>2011-04-22T11:46:51Z</time>
      </trkpt>
      <trkpt lat="59.9777058" lon="15.7814972">
        <ele>98.6725</ele>
        <time>2011-04-22T11:46:57Z</time>
      </trkpt>
      <trkpt lat="59.9776233" lon="15.7814">
        <ele>100.595</ele>
        <time>2011-04-22T11:47:04Z</time>
      </trkpt>
      <trkpt lat="59.9775711" lon="15.7813418">
        <ele>99.6338</ele>
        <time>2011-04-22T11:47:09Z</time>
      </trkpt>
      <trkpt lat="59.9774777" lon="15.7812246">
        <ele>102.518</ele>
        <time>2011-04-22T11:47:17Z</time>
      </trkpt>
      <trkpt lat="59.9773991" lon="15.781131">
        <ele>102.518</ele>
        <time>2011-04-22T11:47:24Z</time>
      </trkpt>
      <trkpt lat="59.9773308" lon="15.7809854">
        <ele>104.921</ele>
        <time>2011-04-22T11:47:31Z</time>
      </trkpt>
      <trkpt lat="59.9772663" lon="15.7808119">
        <ele>111.65</ele>
        <time>2011-04-22T11:47:39Z</time>
      </trkpt>
      <trkpt lat="59.9771641" lon="15.7806554">
        <ele>112.612</ele>
        <time>2011-04-22T11:47:48Z</time>
      </trkpt>
      <trkpt lat="59.9770593" lon="15.7805804">
        <ele>107.324</ele>
        <time>2011-04-22T11:47:55Z</time>
      </trkpt>
      <trkpt lat="59.9769622" lon="15.7805258">
        <ele>103.479</ele>
        <time>2011-04-22T11:48:02Z</time>
      </trkpt>
      <trkpt lat="59.9768395" lon="15.7804822">
        <ele>100.595</ele>
        <time>2011-04-22T11:48:10Z</time>
      </trkpt>
      <trkpt lat="59.9767398" lon="15.7804675">
        <ele>98.6725</ele>
        <time>2011-04-22T11:48:17Z</time>
      </trkpt>
      <trkpt lat="59.9766571" lon="15.7804551">
        <ele>100.115</ele>
        <time>2011-04-22T11:48:23Z</time>
      </trkpt>
      <trkpt lat="59.9766144" lon="15.7804264">
        <ele>102.998</ele>
        <time>2011-04-22T11:48:28Z</time>
      </trkpt>
      <trkpt lat="59.9765629" lon="15.7804254">
        <ele>104.921</ele>
        <time>2011-04-22T11:48:35Z</time>
      </trkpt>
      <trkpt lat="59.9765046" lon="15.7804022">
        <ele>108.286</ele>
        <time>2011-04-22T11:48:41Z</time>
      </trkpt>
      <trkpt lat="59.9764368" lon="15.7804002">
        <ele>111.17</ele>
        <time>2011-04-22T11:48:48Z</time>
      </trkpt>
      <trkpt lat="59.9763398" lon="15.7804259">
        <ele>113.092</ele>
        <time>2011-04-22T11:48:57Z</time>
      </trkpt>
      <trkpt lat="59.9762529" lon="15.78044">
        <ele>117.418</ele>
        <time>2011-04-22T11:49:05Z</time>
      </trkpt>
      <trkpt lat="59.976143" lon="15.7804732">
        <ele>118.86</ele>
        <time>2011-04-22T11:49:12Z</time>
      </trkpt>
      <trkpt lat="59.9759938" lon="15.7804918">
        <ele>116.457</ele>
        <time>2011-04-22T11:49:20Z</time>
      </trkpt>
      <trkpt lat="59.9758467" lon="15.7804808">
        <ele>111.17</ele>
        <time>2011-04-22T11:49:29Z</time>
      </trkpt>
      <trkpt lat="59.9757641" lon="15.7805">
        <ele>111.17</ele>
        <time>2011-04-22T11:49:37Z</time>
      </trkpt>
      <trkpt lat="59.9757164" lon="15.7805094">
        <ele>114.054</ele>
        <time>2011-04-22T11:49:45Z</time>
      </trkpt>
      <trkpt lat="59.9756363" lon="15.7804674">
        <ele>114.054</ele>
        <time>2011-04-22T11:49:51Z</time>
      </trkpt>
      <trkpt lat="59.9755761" lon="15.7804287">
        <ele>111.65</ele>
        <time>2011-04-22T11:49:55Z</time>
      </trkpt>
      <trkpt lat="59.9755062" lon="15.7803727">
        <ele>113.092</ele>
        <time>2011-04-22T11:50:01Z</time>
      </trkpt>
      <trkpt lat="59.9753504" lon="15.7803139">
        <ele>109.728</ele>
        <time>2011-04-22T11:50:12Z</time>
      </trkpt>
      <trkpt lat="59.975254" lon="15.78023">
        <ele>105.402</ele>
        <time>2011-04-22T11:50:21Z</time>
      </trkpt>
      <trkpt lat="59.9752152" lon="15.7801885">
        <ele>102.998</ele>
        <time>2011-04-22T11:50:25Z</time>
      </trkpt>
      <trkpt lat="59.97521" lon="15.780157">
        <ele>103.96</ele>
        <time>2011-04-22T11:50:31Z</time>
      </trkpt>
      <trkpt lat="59.9750286" lon="15.7800023">
        <ele>105.402</ele>
        <time>2011-04-22T11:51:24Z</time>
      </trkpt>
      <trkpt lat="59.974898" lon="15.7798753">
        <ele>102.998</ele>
        <time>2011-04-22T11:51:35Z</time>
      </trkpt>
      <trkpt lat="59.9748462" lon="15.7798272">
        <ele>102.037</ele>
        <time>2011-04-22T11:51:41Z</time>
      </trkpt>
      <trkpt lat="59.9747952" lon="15.7797733">
        <ele>103.96</ele>
        <time>2011-04-22T11:51:45Z</time>
      </trkpt>
      <trkpt lat="59.9747444" lon="15.7797443">
        <ele>102.037</ele>
        <time>2011-04-22T11:51:50Z</time>
      </trkpt>
      <trkpt lat="59.9746759" lon="15.7796987">
        <ele>101.556</ele>
        <time>2011-04-22T11:51:56Z</time>
      </trkpt>
      <trkpt lat="59.9745961" lon="15.7796629">
        <ele>100.115</ele>
        <time>2011-04-22T11:52:02Z</time>
      </trkpt>
      <trkpt lat="59.974475" lon="15.7795946">
        <ele>96.7499</ele>
        <time>2011-04-22T11:52:11Z</time>
      </trkpt>
      <trkpt lat="59.9743409" lon="15.7795204">
        <ele>95.7885</ele>
        <time>2011-04-22T11:52:21Z</time>
      </trkpt>
      <trkpt lat="59.9742657" lon="15.779489">
        <ele>95.7885</ele>
        <time>2011-04-22T11:52:28Z</time>
      </trkpt>
      <trkpt lat="59.9741443" lon="15.7794393">
        <ele>94.8271</ele>
        <time>2011-04-22T11:52:37Z</time>
      </trkpt>
      <trkpt lat="59.9740637" lon="15.7794032">
        <ele>96.2693</ele>
        <time>2011-04-22T11:52:43Z</time>
      </trkpt>
      <trkpt lat="59.9739254" lon="15.7793374">
        <ele>94.3466</ele>
        <time>2011-04-22T11:52:52Z</time>
      </trkpt>
      <trkpt lat="59.9738166" lon="15.7792737">
        <ele>91.4625</ele>
        <time>2011-04-22T11:53:00Z</time>
      </trkpt>
      <trkpt lat="59.973742" lon="15.7792195">
        <ele>92.424</ele>
        <time>2011-04-22T11:53:09Z</time>
      </trkpt>
      <trkpt lat="59.9737104" lon="15.7791938">
        <ele>92.424</ele>
        <time>2011-04-22T11:53:14Z</time>
      </trkpt>
      <trkpt lat="59.9736369" lon="15.7791511">
        <ele>91.4625</ele>
        <time>2011-04-22T11:53:22Z</time>
      </trkpt>
      <trkpt lat="59.973568" lon="15.7791261">
        <ele>91.9432</ele>
        <time>2011-04-22T11:53:28Z</time>
      </trkpt>
      <trkpt lat="59.9734999" lon="15.7791067">
        <ele>94.3466</ele>
        <time>2011-04-22T11:53:34Z</time>
      </trkpt>
      <trkpt lat="59.9733918" lon="15.779117">
        <ele>94.8271</ele>
        <time>2011-04-22T11:53:44Z</time>
      </trkpt>
      <trkpt lat="59.9732997" lon="15.7791256">
        <ele>95.7885</ele>
        <time>2011-04-22T11:53:52Z</time>
      </trkpt>
      <trkpt lat="59.9731955" lon="15.7792228">
        <ele>98.1919</ele>
        <time>2011-04-22T11:54:00Z</time>
      </trkpt>
      <trkpt lat="59.9731271" lon="15.7793766">
        <ele>100.115</ele>
        <time>2011-04-22T11:54:07Z</time>
      </trkpt>
      <trkpt lat="59.9730533" lon="15.7796045">
        <ele>101.556</ele>
        <time>2011-04-22T11:54:17Z</time>
      </trkpt>
      <trkpt lat="59.973" lon="15.7798645">
        <ele>102.518</ele>
        <time>2011-04-22T11:54:27Z</time>
      </trkpt>
      <trkpt lat="59.9729832" lon="15.7801331">
        <ele>102.037</ele>
        <time>2011-04-22T11:54:37Z</time>
      </trkpt>
      <trkpt lat="59.9730116" lon="15.7802804">
        <ele>101.076</ele>
        <time>2011-04-22T11:54:43Z</time>
      </trkpt>
      <trkpt lat="59.9730365" lon="15.780355">
        <ele>101.076</ele>
        <time>2011-04-22T11:54:49Z</time>
      </trkpt>
      <trkpt lat="59.9730788" lon="15.7804732">
        <ele>101.076</ele>
        <time>2011-04-22T11:54:55Z</time>
      </trkpt>
      <trkpt lat="59.9731783" lon="15.7806388">
        <ele>102.037</ele>
        <time>2011-04-22T11:55:05Z</time>
      </trkpt>
      <trkpt lat="59.9732944" lon="15.7808259">
        <ele>102.998</ele>
        <time>2011-04-22T11:55:16Z</time>
      </trkpt>
      <trkpt lat="59.9734009" lon="15.7810011">
        <ele>103.479</ele>
        <time>2011-04-22T11:55:26Z</time>
      </trkpt>
      <trkpt lat="59.9734859" lon="15.7811433">
        <ele>102.037</ele>
        <time>2011-04-22T11:55:35Z</time>
      </trkpt>
      <trkpt lat="59.9735427" lon="15.7813045">
        <ele>102.998</ele>
        <time>2011-04-22T11:55:44Z</time>
      </trkpt>
      <trkpt lat="59.9735845" lon="15.7814965">
        <ele>103.479</ele>
        <time>2011-04-22T11:55:52Z</time>
      </trkpt>
      <trkpt lat="59.9736419" lon="15.7817095">
        <ele>103.96</ele>
        <time>2011-04-22T11:56:02Z</time>
      </trkpt>
      <trkpt lat="59.9736893" lon="15.7818644">
        <ele>103.96</ele>
        <time>2011-04-22T11:56:10Z</time>
      </trkpt>
      <trkpt lat="59.9737441" lon="15.7820992">
        <ele>104.44</ele>
        <time>2011-04-22T11:56:20Z</time>
      </trkpt>
      <trkpt lat="59.9737786" lon="15.7823094">
        <ele>104.44</ele>
        <time>2011-04-22T11:56:28Z</time>
      </trkpt>
      <trkpt lat="59.9737896" lon="15.7824606">
        <ele>104.44</ele>
        <time>2011-04-22T11:56:34Z</time>
      </trkpt>
      <trkpt lat="59.9738061" lon="15.7826354">
        <ele>103.96</ele>
        <time>2011-04-22T11:56:42Z</time>
      </trkpt>
      <trkpt lat="59.973843" lon="15.7827854">
        <ele>104.921</ele>
        <time>2011-04-22T11:56:50Z</time>
      </trkpt>
      <trkpt lat="59.9738839" lon="15.7829403">
        <ele>105.882</ele>
        <time>2011-04-22T11:56:58Z</time>
      </trkpt>
      <trkpt lat="59.9739517" lon="15.7831493">
        <ele>107.324</ele>
        <time>2011-04-22T11:57:08Z</time>
      </trkpt>
      <trkpt lat="59.9740294" lon="15.7833423">
        <ele>107.805</ele>
        <time>2011-04-22T11:57:18Z</time>
      </trkpt>
      <trkpt lat="59.9741077" lon="15.7835074">
        <ele>107.805</ele>
        <time>2011-04-22T11:57:28Z</time>
      </trkpt>
      <trkpt lat="59.9741953" lon="15.7836761">
        <ele>108.286</ele>
        <time>2011-04-22T11:57:38Z</time>
      </trkpt>
      <trkpt lat="59.9742847" lon="15.7838142">
        <ele>108.286</ele>
        <time>2011-04-22T11:57:47Z</time>
      </trkpt>
      <trkpt lat="59.9743709" lon="15.7839479">
        <ele>108.766</ele>
        <time>2011-04-22T11:57:56Z</time>
      </trkpt>
      <trkpt lat="59.9744148" lon="15.7840033">
        <ele>108.766</ele>
        <time>2011-04-22T11:58:00Z</time>
      </trkpt>
      <trkpt lat="59.9744232" lon="15.7840123">
        <ele>108.286</ele>
        <time>2011-04-22T11:58:03Z</time>
      </trkpt>
      <trkpt lat="59.9745906" lon="15.7842448">
        <ele>106.844</ele>
        <time>2011-04-22T11:58:31Z</time>
      </trkpt>
      <trkpt lat="59.9746452" lon="15.7843628">
        <ele>109.247</ele>
        <time>2011-04-22T11:58:37Z</time>
      </trkpt>
      <trkpt lat="59.9746785" lon="15.7844186">
        <ele>110.208</ele>
        <time>2011-04-22T11:58:41Z</time>
      </trkpt>
      <trkpt lat="59.9747473" lon="15.784516">
        <ele>111.17</ele>
        <time>2011-04-22T11:58:48Z</time>
      </trkpt>
      <trkpt lat="59.9747566" lon="15.7845307">
        <ele>111.17</ele>
        <time>2011-04-22T11:58:49Z</time>
      </trkpt>
      <trkpt lat="59.9747965" lon="15.7845934">
        <ele>111.17</ele>
        <time>2011-04-22T11:58:54Z</time>
      </trkpt>
      <trkpt lat="59.9748333" lon="15.784725">
        <ele>112.612</ele>
        <time>2011-04-22T11:59:03Z</time>
      </trkpt>
      <trkpt lat="59.9748463" lon="15.7848227">
        <ele>114.054</ele>
        <time>2011-04-22T11:59:10Z</time>
      </trkpt>
      <trkpt lat="59.9748586" lon="15.7848571">
        <ele>114.054</ele>
        <time>2011-04-22T11:59:12Z</time>
      </trkpt>
      <trkpt lat="59.9748736" lon="15.7848912">
        <ele>114.054</ele>
        <time>2011-04-22T11:59:15Z</time>
      </trkpt>
      <trkpt lat="59.9748975" lon="15.7849387">
        <ele>114.534</ele>
        <time>2011-04-22T11:59:18Z</time>
      </trkpt>
      <trkpt lat="59.9749562" lon="15.7850094">
        <ele>114.534</ele>
        <time>2011-04-22T11:59:25Z</time>
      </trkpt>
      <trkpt lat="59.9750132" lon="15.7850804">
        <ele>114.054</ele>
        <time>2011-04-22T11:59:32Z</time>
      </trkpt>
      <trkpt lat="59.9751176" lon="15.7852337">
        <ele>113.573</ele>
        <time>2011-04-22T11:59:44Z</time>
      </trkpt>
      <trkpt lat="59.9751746" lon="15.7854308">
        <ele>114.534</ele>
        <time>2011-04-22T11:59:55Z</time>
      </trkpt>
      <trkpt lat="59.9751791" lon="15.7856132">
        <ele>115.015</ele>
        <time>2011-04-22T12:00:03Z</time>
      </trkpt>
      <trkpt lat="59.9751757" lon="15.7856335">
        <ele>115.015</ele>
        <time>2011-04-22T12:00:04Z</time>
      </trkpt>
      <trkpt lat="59.984803" lon="15.8276342">
        <ele>98.6725</ele>
        <time>2011-04-29T17:36:42Z</time>
        <extensions><gpxtpx:TrackPointExtension><gpxtpx:hr>73</gpxtpx:hr></gpxtpx:TrackPointExtension></extensions>
      </trkpt>
      <trkpt lat="59.9848393" lon="15.8274893">
        <ele>97.2305</ele>
        <time>2011-04-29T17:36:46Z</time>
        <extensions><gpxtpx:TrackPointExtension><gpxtpx:hr>79</gpxtpx:hr></gpxtpx:TrackPointExtension></extensions>
      </trkpt>
      <trkpt lat="59.9848511" lon="15.8273818">
        <ele>96.7499</ele>
        <time>2011-04-29T17:36:48Z</time>
        <extensions><gpxtpx:TrackPointExtension><gpxtpx:hr>88</gpxtpx:hr></gpxtpx:TrackPointExtension></extensions>
      </trkpt>
      <trkpt lat="59.9848531" lon="15.8273295">
        <ele>96.2693</ele>
        <time>2011-04-29T17:36:49Z</time>
        <extensions><gpxtpx:TrackPointExtension><gpxtpx:hr>99</gpxtpx:hr></gpxtpx:TrackPointExtension></extensions>
      </trkpt>
      <trkpt lat="59.9848529" lon="15.82728">
        <ele>96.2693</ele>
        <time>2011-04-29T17:36:50Z</time>
        <extensions><gpxtpx:TrackPointExtension><gpxtpx:hr>99</gpxtpx:hr></gpxtpx:TrackPointExtension></extensions>
      </trkpt>
      <trkpt lat="59.984847" lon="15.8272344">
        <ele>96.7499</ele>
        <time>2011-04-29T17:36:51Z</time>
        <extensions><gpxtpx:TrackPointExtension><gpxtpx:hr>107</gpxtpx:hr></gpxtpx:TrackPointExtension></extensions>
      </trkpt>
      <trkpt lat="59.9848345" lon="15.8272049">
        <ele>96.7499</ele>
        <time>2011-04-29T17:36:52Z</time>
        <extensions><gpxtpx:TrackPointExtension><gpxtpx:hr>118</gpxtpx:hr></gpxtpx:TrackPointExtension></extensions>
      </trkpt>
      <trkpt lat="59.9848119" lon="15.8271862">
        <ele>96.2693</ele>
        <time>2011-04-29T17:36:53Z</time>
        <extensions><gpxtpx:TrackPointExtension><gpxtpx:hr>118</gpxtpx:hr></gpxtpx:TrackPointExtension></extensions>
      </trkpt>
      <trkpt lat="59.9847295" lon="15.8271218">
        <ele>93.8658</ele>
        <time>2011-04-29T17:36:56Z</time>
        <extensions><gpxtpx:TrackPointExtension><gpxtpx:hr>126</gpxtpx:hr></gpxtpx:TrackPointExtension></extensions>
      </trkpt>
      <trkpt lat="59.9846819" lon="15.8270685">
        <ele>92.424</ele>
        <time>2011-04-29T17:36:58Z</time>
        <extensions><gpxtpx:TrackPointExtension><gpxtpx:hr>136</gpxtpx:hr></gpxtpx:TrackPointExtension></extensions>
      </trkpt>
      <trkpt lat="59.9846554" lon="15.8270356">
        <ele>91.9432</ele>
        <time>2011-04-29T17:36:59Z</time>
        <extensions><gpxtpx:TrackPointExtension><gpxtpx:hr>136</gpxtpx:hr></gpxtpx:TrackPointExtension></extensions>
      </trkpt>
      <trkpt lat="59.9845015" lon="15.826848">
        <ele>89.5399</ele>
        <time>2011-04-29T17:37:05Z</time>
        <extensions><gpxtpx:TrackPointExtension><gpxtpx:hr>141</gpxtpx:hr></gpxtpx:TrackPointExtension></extensions>
      </trkpt>
      <trkpt lat="59.9844067" lon="15.8267183">
        <ele>87.1366</ele>
        <time>2011-04-29T17:37:09Z</time>
        <extensions><gpxtpx:TrackPointExtension><gpxtpx:hr>149</gpxtpx:hr></gpxtpx:TrackPointExtension></extensions>
      </trkpt>
      <trkpt lat="59.9842341" lon="15.8265798">
        <ele>83.772</ele>
        <time>2011-04-29T17:37:16Z</time>
        <extensions><gpxtpx:TrackPointExtension><gpxtpx:hr>151</gpxtpx:hr></gpxtpx:TrackPointExtension></extensions>
      </trkpt>
      <trkpt lat="59.9841587" lon="15.8265005">
        <ele>83.772</ele>
        <time>2011-04-29T17:37:21Z</time>
        <extensions><gpxtpx:TrackPointExtension><gpxtpx:hr>151</gpxtpx:hr></gpxtpx:TrackPointExtension></extensions>
      </trkpt>
    </trkseg>
  </trk>
</gpx>